20:29
Airports
History
Links
Donate
Help keep this website running!
PayPal
Bitcoin
Information on this page is community maintained and may be outdated or inaccurate and is intended for reference only or PC simulator navigating.
Always use approved charts for navigating.
9M9
4B Ranch
4B Ranch (9M9)
Tallulah, Louisiana, United States (71282)
4
Lat/Lng:32° 24' 35.51" N / 91° 20' 55.41" W
32.409865 / -91.348725
Elevation:80'ft 24mMSL
ID / ICAO:9M9
Runways:1
Longest:(10-28) 724.2m 2,376ft Grass
Distance To
Airport ID:
Nearby VORs <50NM
Nearby NDBs
Nearby WeatherUpdated 05-28-17 19:53 GMT
Nearby weather at KTVR, Vicksburg Tallulah Rgnl located 19.2 nautical miles from 9M9
Altimeter: 29.90
Visibility: 10.0 statute miles
Wind: 3 knots (VRB°)
Temp: 23°c 73°f
Humidity: 88.5%

METAR: KTVR 281953Z AUTO VRB03KT 10SM CLR 23/21 A2990 RMK AO2 LTG DSNT SW RAE10B21E30 SLP130 P0001 T02330206

(Powered by phpweather)
Runway 10 / 28
Dimensions:724.2 x 30.5m 2376' x 100'ft
Surface:Grass
Runway 10 [A]Runway 28 [B]
Heading:102°TH 282°TH
Lat:
Lng:
32° 24' 38.14"N
91° 21' 8.86"W
32° 24' 32.89"N
91° 20' 41.96"W
User Notes and Comments
Google Map
Nearby Airports
4 Gustafson 2.5 NM
71LA NE 50°
(U) Delhi Muni 8.7 NM
0M9 W 270°
(U) Scott 11.7 NM
M80 E 87°
4 Red Beard Dusting Service 15.6 NM
9M5 SE 124°
4 Norris Airstrip 19.0 NM
52R S 191°
(U) Vicksburg Tallulah Rgnl 19.2 NM
KTVR (WX) ESE 102°
(U) Bayou Meadows 20.2 NM
9M1 N 354°
VFR Chart
Flight Planning at SkyVector.com